SRU weather

CLOSED Santa Cruz Sky Park
Scotts Valley, California, United States

Public forecast

Using degrees Fahrenheit for public forecast. Weather courtesy of forecast.io.

METAR (pilot weather report)

Closest report is Watsonville Municipal Airport, 13.5 nm (24.9 km) ESE. Retrieved 2019/06/25 20:53 UTC (21 minutes ago):

KWVI 252053Z AUTO 22009KT 10SM CLR 20/13 A2990 RMK AO2 SLP125 T02000128 58003

TAF (pilot weather forecast)

Closest forecast is Norman Y. Mineta San Jose International Airport, 19.4 nm (35.9 km) NNE. Retrieved 2019/06/25 18:30 UTC (3 hours ago):

TAF KSJC 251728Z 2518/2618 VRB04KT P6SM FEW015 FEW200 FM252000 31011KT P6SM SCT200 FM260500 29007KT P6SM SCT200 FM260900 VRB04KT P6SM FEW015 SCT200